Buoy 16555

sailwx.info

Track history (hours):
 
Tides and Currents Weather Stations Pressure Air Temp Water Temp Dewpoint Dewpoint Depression Visibility Wind Speed Wind Dir Waves Ship Positions

Drifting buoy 16555

Last reported at 2016-May-03 04:00 UTC. Time now 2016-May-03 10:40 UTC.
Position S 39°20' E 080°29'.

Barometer 1024.4 mb
Water temperature 16.5 ° C

Date/timePositionNaut miles runAvg speedWind from/ knotsBaromVisibWave heightAir tempDewpointWater temp
2016-May-03 04:00S 39°20' E 080°29'1 0.2 1024.4 16.5
2016-May-02 23:00S 39°21' E 080°29'1 0.2 1025.4 16.5
2016-May-02 18:00S 39°20' E 080°29'0 0.1 1027.6 16.5
2016-May-02 14:00S 39°20' E 080°29'2 0.2 1029.2 16.6
2016-May-02 05:00S 39°20' E 080°32'0 0.0 1032.2 16.6
2016-May-01 22:00S 39°20' E 080°32'1 0.2 1033.6 16.7
2016-May-01 17:00S 39°19' E 080°33'2 0.3 1035.6 16.8
2016-May-01 11:00S 39°20' E 080°35'1 0.1 1035.3 17.1
2016-May-01 03:00S 39°19' E 080°35'0 0.5 1036.7 17.0
2016-May-01 02:00S 39°19' E 080°36'1 0.4 1036.5 17.0
2016-May-01 00:00S 39°19' E 080°37'1 0.2 1036.5 17.0
2016-Apr-30 19:00S 39°20' E 080°38'1 0.6 1036.7 17.0
2016-Apr-30 17:00S 39°20' E 080°39'1 0.2 1036.6 17.0
2016-Apr-30 11:00S 39°22' E 080°40'1 0.2 1035.2 16.9
2016-Apr-30 04:00S 39°20' E 080°41'2 0.6 1034.7 17.0
2016-Apr-30 01:00S 39°21' E 080°43'1 0.1 1034.0 17.0
2016-Apr-29 12:00S 39°22' E 080°43'1 0.5 1031.3 17.2
2016-Apr-29 11:00S 39°21' E 080°44'2 0.3 1031.2 17.2
2016-Apr-29 02:00S 39°23' E 080°46'1 0.5 1030.4 17.1
2016-Apr-29 01:00S 39°23' E 080°46'1 0.3 1029.9 17.1
2016-Apr-28 22:00S 39°23' E 080°45'1 0.6 1029.5 17.1
2016-Apr-28 21:00S 39°23' E 080°45'1 0.5 1029.7 17.1
2016-Apr-28 20:00S 39°23' E 080°44'1 0.3 1030.1 17.2
2016-Apr-28 18:00S 39°22' E 080°45'1 0.2 1030.0 17.2
2016-Apr-28 14:00S 39°22' E 080°46'2 0.6 1030.0 17.2
2016-Apr-28 11:00S 39°22' E 080°48'2 0.3 1029.6 17.3
2016-Apr-28 05:00S 39°24' E 080°46'1 0.2 1030.4 17.2
2016-Apr-28 02:00S 39°24' E 080°46'0 0.0 1029.9 17.1
2016-Apr-28 01:00S 39°24' E 080°46'1 0.7 1029.9 17.2
2016-Apr-28 00:00S 39°23' E 080°45'0 0.1 1029.8 17.2
2016-Apr-27 21:00S 39°23' E 080°45'3 0.3 1029.9 17.1
2016-Apr-27 12:00S 39°25' E 080°47'1 0.5 1029.3 16.5
2016-Apr-27 11:00S 39°26' E 080°47'1 0.3 1029.2 16.5
2016-Apr-27 08:00S 39°26' E 080°45'1 0.2 1029.1 16.5
2016-Apr-27 02:00S 39°25' E 080°45'1 0.4 1030.1 16.4
2016-Apr-27 00:00S 39°25' E 080°46'0 0.0 1029.8 16.4
2016-Apr-26 23:00S 39°25' E 080°46'0 0.1 1029.7 16.4
2016-Apr-26 21:00S 39°25' E 080°46'1 0.3 1030.4 16.4
2016-Apr-26 17:00S 39°27' E 080°46'1 0.3 1031.2 16.5
2016-Apr-26 13:00S 39°27' E 080°44'1 0.1 1031.0 16.5
2016-Apr-26 08:00S 39°26' E 080°43'1 0.2 1030.8 16.5
2016-Apr-26 02:00S 39°26' E 080°45'1 0.3 1031.8 16.4
2016-Apr-26 00:00S 39°26' E 080°46'2 0.3 1031.2 16.4
2016-Apr-25 17:00S 39°27' E 080°43'0 0.1 1030.8 16.4
2016-Apr-25 16:00S 39°27' E 080°43'2 0.3 1030.7 16.5
2016-Apr-25 10:00S 39°25' E 080°43'2 0.3 1029.0 16.5
2016-Apr-25 04:00S 39°26' E 080°46'1 0.4 1028.7 16.5
2016-Apr-25 01:00S 39°27' E 080°45'0 0.2 1028.1 16.5
2016-Apr-25 00:00S 39°27' E 080°45'3 0.3 1027.7 16.5
2016-Apr-24 14:00S 39°24' E 080°45'1 0.4 1028.9 16.5
2016-Apr-24 10:00S 39°24' E 080°47'2 0.2 1028.8 16.5
2016-Apr-24 03:00S 39°25' E 080°45'0 0.2 1030.6 16.5
2016-Apr-24 02:00S 39°24' E 080°45'2 0.6 1030.2 16.5
2016-Apr-23 22:00S 39°22' E 080°46'0 0.3 1029.7 16.5
2016-Apr-23 21:00S 39°22' E 080°46'1 0.3 1030.2 16.5
2016-Apr-23 17:00S 39°22' E 080°48'1 0.2 1030.7 16.5
2016-Apr-23 13:00S 39°23' E 080°49'0 0.0 1029.5 16.6
2016-Apr-23 12:00S 39°23' E 080°49'1 0.4 1028.9 16.6
2016-Apr-23 10:00S 39°24' E 080°49'4 0.7 1028.3 16.6
2016-Apr-23 05:00S 39°20' E 080°48'   1027.2 16.6
Track history (hours):
 
Tides and Currents Weather Stations Pressure Air Temp Water Temp Dewpoint Dewpoint Depression Visibility Wind Speed Wind Dir Waves Ship Positions

Drifting buoy 16555

Last reported at 2016-May-03 04:00 UTC. Time now 2016-May-03 10:40 UTC.
Position S 39°20' E 080°29'.

Barometer 1024.4 mb
Water temperature 16.5 ° C

Date/timePositionNaut miles runAvg speedWind from/ knotsBaromVisibWave heightAir tempDewpointWater temp
2016-May-03 04:00S 39°20' E 080°29'1 0.2 1024.4 16.5
2016-May-02 23:00S 39°21' E 080°29'1 0.2 1025.4 16.5
2016-May-02 18:00S 39°20' E 080°29'0 0.1 1027.6 16.5
2016-May-02 14:00S 39°20' E 080°29'2 0.2 1029.2 16.6
2016-May-02 05:00S 39°20' E 080°32'0 0.0 1032.2 16.6
2016-May-01 22:00S 39°20' E 080°32'1 0.2 1033.6 16.7
2016-May-01 17:00S 39°19' E 080°33'2 0.3 1035.6 16.8
2016-May-01 11:00S 39°20' E 080°35'1 0.1 1035.3 17.1
2016-May-01 03:00S 39°19' E 080°35'0 0.5 1036.7 17.0
2016-May-01 02:00S 39°19' E 080°36'1 0.4 1036.5 17.0
2016-May-01 00:00S 39°19' E 080°37'1 0.2 1036.5 17.0
2016-Apr-30 19:00S 39°20' E 080°38'1 0.6 1036.7 17.0
2016-Apr-30 17:00S 39°20' E 080°39'1 0.2 1036.6 17.0
2016-Apr-30 11:00S 39°22' E 080°40'1 0.2 1035.2 16.9
2016-Apr-30 04:00S 39°20' E 080°41'2 0.6 1034.7 17.0
2016-Apr-30 01:00S 39°21' E 080°43'1 0.1 1034.0 17.0
2016-Apr-29 12:00S 39°22' E 080°43'1 0.5 1031.3 17.2
2016-Apr-29 11:00S 39°21' E 080°44'2 0.3 1031.2 17.2
2016-Apr-29 02:00S 39°23' E 080°46'1 0.5 1030.4 17.1
2016-Apr-29 01:00S 39°23' E 080°46'1 0.3 1029.9 17.1
2016-Apr-28 22:00S 39°23' E 080°45'1 0.6 1029.5 17.1
2016-Apr-28 21:00S 39°23' E 080°45'1 0.5 1029.7 17.1
2016-Apr-28 20:00S 39°23' E 080°44'1 0.3 1030.1 17.2
2016-Apr-28 18:00S 39°22' E 080°45'1 0.2 1030.0 17.2
2016-Apr-28 14:00S 39°22' E 080°46'2 0.6 1030.0 17.2
2016-Apr-28 11:00S 39°22' E 080°48'2 0.3 1029.6 17.3
2016-Apr-28 05:00S 39°24' E 080°46'1 0.2 1030.4 17.2
2016-Apr-28 02:00S 39°24' E 080°46'0 0.0 1029.9 17.1
2016-Apr-28 01:00S 39°24' E 080°46'1 0.7 1029.9 17.2
2016-Apr-28 00:00S 39°23' E 080°45'0 0.1 1029.8 17.2
2016-Apr-27 21:00S 39°23' E 080°45'3 0.3 1029.9 17.1
2016-Apr-27 12:00S 39°25' E 080°47'1 0.5 1029.3 16.5
2016-Apr-27 11:00S 39°26' E 080°47'1 0.3 1029.2 16.5
2016-Apr-27 08:00S 39°26' E 080°45'1 0.2 1029.1 16.5
2016-Apr-27 02:00S 39°25' E 080°45'1 0.4 1030.1 16.4
2016-Apr-27 00:00S 39°25' E 080°46'0 0.0 1029.8 16.4
2016-Apr-26 23:00S 39°25' E 080°46'0 0.1 1029.7 16.4
2016-Apr-26 21:00S 39°25' E 080°46'1 0.3 1030.4 16.4
2016-Apr-26 17:00S 39°27' E 080°46'1 0.3 1031.2 16.5
2016-Apr-26 13:00S 39°27' E 080°44'1 0.1 1031.0 16.5
2016-Apr-26 08:00S 39°26' E 080°43'1 0.2 1030.8 16.5
2016-Apr-26 02:00S 39°26' E 080°45'1 0.3 1031.8 16.4
2016-Apr-26 00:00S 39°26' E 080°46'2 0.3 1031.2 16.4
2016-Apr-25 17:00S 39°27' E 080°43'0 0.1 1030.8 16.4
2016-Apr-25 16:00S 39°27' E 080°43'2 0.3 1030.7 16.5
2016-Apr-25 10:00S 39°25' E 080°43'2 0.3 1029.0 16.5
2016-Apr-25 04:00S 39°26' E 080°46'1 0.4 1028.7 16.5
2016-Apr-25 01:00S 39°27' E 080°45'0 0.2 1028.1 16.5
2016-Apr-25 00:00S 39°27' E 080°45'3 0.3 1027.7 16.5
2016-Apr-24 14:00S 39°24' E 080°45'1 0.4 1028.9 16.5
2016-Apr-24 10:00S 39°24' E 080°47'2 0.2 1028.8 16.5
2016-Apr-24 03:00S 39°25' E 080°45'0 0.2 1030.6 16.5
2016-Apr-24 02:00S 39°24' E 080°45'2 0.6 1030.2 16.5
2016-Apr-23 22:00S 39°22' E 080°46'0 0.3 1029.7 16.5
2016-Apr-23 21:00S 39°22' E 080°46'1 0.3 1030.2 16.5
2016-Apr-23 17:00S 39°22' E 080°48'1 0.2 1030.7 16.5
2016-Apr-23 13:00S 39°23' E 080°49'0 0.0 1029.5 16.6
2016-Apr-23 12:00S 39°23' E 080°49'1 0.4 1028.9 16.6
2016-Apr-23 10:00S 39°24' E 080°49'4 0.7 1028.3 16.6
2016-Apr-23 05:00S 39°20' E 080°48'   1027.2 16.6

Dump ship's entire track history